Aviation Digital Data Service (ADDS)

Output produced by METARs form (0556 UTC 29 May 2017)
found at http://www.aviationweather.gov/adds/metars/
 
YPAD 290530Z 26013KT 4000 -SHRA FEW012 SCT014 BKN018 14/13 Q1021 FM0530 29012KT 9999 -SHRA SCT020 BKN030 INTER 0530/0830 3000 SHRA SCT010 BKN020
TAF AMD YPAD 290526Z 2906/3012 29012KT 9999 -SHRA SCT020 BKN030 
     FM291800 18012KT 9999 -SHRA SCT025 
     FM300000 18012KT 9999 SCT040 
     FM300800 16007KT 9999 FEW040 INTER 2906/2910 3000 SHRA SCT010 BKN020 INTER 2910/2917 5000 SHRA SCT015 BKN025 INTER 2917/2919 20015G25KT 3000 SHRA BKN010
       
YABA 290500Z AUTO 03004KT 9999 // OVC032 17/09 Q1025
YMAY 290500Z AUTO 31008KT 9999 // SCT053 12/05 Q1021
YBAS 290530Z AUTO 14006KT 070V150 9999 // NCD 22/04 Q1022 RF00.0/000.0
TAF YBAS 290507Z 2906/3006 12008KT CAVOK 
     FM291700 30005KT CAVOK 
     FM300000 12012KT CAVOK
       
YAMB 290530Z /////KT CAVOK 26/03 Q1017 NOSIG
TAF YAMB 290418Z 2905/2924 29012KT CAVOK 
     FM291000 VRB03KT CAVOK
       
YARG 290500Z 10010KT //// // ////// 32/05 Q1015
YMAV 290530Z AUTO 28016KT 9999 // OVC054 13/07 Q1019 RF00.0/000.0
TAF AMD YMAV 290505Z 2906/3006 33010KT 9999 SCT045 BKN060 
     FM291100 33015G25KT 9999 -SHRA SCT040 BKN060 
     FM292000 26014KT 9999 -SHRA SCT015 BKN030 
     FM300200 22018G32KT 9999 -SHRA SCT018 BKN030 INTER 2920/3002 5000 SHRA BKN015 INTER 3002/3006 3000 SHRAGS BKN015
       
YAYE 290500Z AUTO 11009KT 9999 // NCD 21/05 Q1022
YLEC 290500Z AUTO 24004KT //// // ////// 17/07 Q1023
YLHI 290530Z 25014KT 9999 VCSH FEW022 SCT026 BKN070 20/14 Q1015
TAF AMD YLHI 290506Z 2906/3006 24015G25KT 9999 -SHRA FEW020 SCT030 
     FM291200 23013KT 9999 SCT030 INTER 2906/2912 5000 SHRA BKN010
       
YLIS 290500Z AUTO 29011KT 9999 // NCD 24/09 Q1016
YLRE 290500Z AUTO 12002KT 9999 // NCD 26/04 Q1018
YBNA 290500Z AUTO 27011KT 9999 // NCD 24/08 Q1017
YBWX 290500Z AUTO 07013KT //// // ////// 27/16 Q1016
YBDV 290500Z AUTO 16010KT 120V190 //// // ////// 22/03 Q1021
YBAS 290530Z AUTO 14006KT 070V150 9999 // NCD 22/04 Q1022 RF00.0/000.0
TAF YBAS 290507Z 2906/3006 12008KT CAVOK 
     FM291700 30005KT CAVOK 
     FM300000 12012KT CAVOK
       
YBBN 290530Z 26012KT 9999 FEW030 26/07 Q1017 NOSIG
TAF YBBN 290505Z 2906/3012 VRB05KT CAVOK 
     FM291000 24004KT CAVOK 
     FM292300 18005KT 9999 FEW025 
     FM300400 07008KT CAVOK
       
YBCG 290530Z AUTO 29009KT 9999 // NCD 25/08 Q1016 RF00.0/000.0
TAF YBCG 290504Z 2906/3006 29007KT CAVOK 
     FM291000 20005KT 9999 SCT030 
     FM300300 09005KT 9999 SCT030
       
YBCS 290530Z 13017KT 9999 FEW030 BKN270 27/15 Q1015 NOSIG
TAF YBCS 290537Z 2906/3006 13016KT 9999 FEW028 
     FM290900 16008KT 9999 FEW025 SCT040 
     FM292300 14016KT 9999 SCT030
       
YBCV 290500Z AUTO /////KT //// // ////// ///// Q////
YBDV 290500Z AUTO 16010KT 120V190 //// // ////// 22/03 Q1021
YBHI 290500Z AUTO 20005KT 180V240 9999 // ////// 15/04 Q1022
YBHM 290530Z AUTO 16013KT 9999 // NCD 23/20 Q1017
TAF YBHM 290443Z 2906/2918 15014KT 9999 FEW020 
     FM291500 15016KT 9999 SCT015
       
YBMA 290530Z AUTO 16009KT 9999 // NCD 21/01 Q1020
TAF YBMA 290436Z 2906/2918 16010KT CAVOK
       
YBMK 290500Z AUTO 11011KT 9999 // NCD 24/20 Q1017
YBNA 290500Z AUTO 27011KT 9999 // NCD 24/08 Q1017
YBOK 290500Z 26013KT CAVOK 22/05 Q1019 NOSIG
YBPN 290500Z AUTO 10009KT 9999 // NCD 25/16 Q1016
YBRK 290530Z 32003KT CAVOK 27/16 Q1016
TAF YBRK 290522Z 2906/3006 VRB05KT 9999 FEW040 
     FM291200 18004KT 9999 FEW025 
     FM300000 12007KT 9999 FEW030 
     PROB30 2916/2923 2000 BR
       
YBRM 290530Z 17007KT CAVOK 32/09 Q1012
TAF YBRM 290504Z 2906/3006 VRB05KT CAVOK 
     FM292300 10010KT CAVOK 
     FM300200 07012KT CAVOK
       
YBTL 290530Z 06009KT 9999 FEW038 SCT230 BKN330 25/19 Q1016 NOSIG RMK USE TAF FOR ARRIVALS AFTER 0800Z
TAF YBTL 290537Z 2906/3006 07012KT 9999 FEW030 
     FM290900 10006KT 9999 FEW017 
     FM291200 16005KT 9999 SCT016 
     FM300000 11013KT 9999 FEW030 
     FM300200 07015KT 9999 FEW035
       
YBUD 290500Z AUTO 18004KT 140V230 9999 // NCD 25/15 Q1017
YBWP 290500Z AUTO 12015KT 9999 // SCT054 31/19 Q1011
YBWX 290500Z AUTO 07013KT //// // ////// 27/16 Q1016
YBBN 290530Z 26012KT 9999 FEW030 26/07 Q1017 NOSIG
TAF YBBN 290505Z 2906/3012 VRB05KT CAVOK 
     FM291000 24004KT CAVOK 
     FM292300 18005KT 9999 FEW025 
     FM300400 07008KT CAVOK
       
YBHI 290500Z AUTO 20005KT 180V240 9999 // ////// 15/04 Q1022
YBRM 290530Z 17007KT CAVOK 32/09 Q1012
TAF YBRM 290504Z 2906/3006 VRB05KT CAVOK 
     FM292300 10010KT CAVOK 
     FM300200 07012KT CAVOK
       
YBUD 290500Z AUTO 18004KT 140V230 9999 // NCD 25/15 Q1017
YBCS 290530Z 13017KT 9999 FEW030 BKN270 27/15 Q1015 NOSIG
TAF YBCS 290537Z 2906/3006 13016KT 9999 FEW028 
     FM290900 16008KT 9999 FEW025 SCT040 
     FM292300 14016KT 9999 SCT030
       
YSCB 290530Z 30014KT 9999 FEW035 10/01 Q1019 NOSIG
TAF AMD YSCB 290518Z 2906/3006 29010KT 9999 FEW030 
     BECMG 2913/2915 29005KT 9999 BKN010 
     FM300000 29012KT 9999 SCT025 
     PROB30 2914/2922 3000 BR BKN006
       
YCAR 290500Z AUTO 06008KT 9999 // NCD 31/06 Q1017
YCAS 290500Z AUTO 27007KT //// // ////// 25/08 Q1016
YCDU 290500Z AUTO 24009KT 9999 // BKN049 OVC061 16/12 Q1023
YCAR 290500Z AUTO 06008KT 9999 // NCD 31/06 Q1017
YCAS 290500Z AUTO 27007KT //// // ////// 25/08 Q1016
YCBA 290500Z AUTO 21010KT 9999 // NCD 14/02 Q1022
YCBB 290500Z AUTO 23007KT //// // ////// 12/M01 Q1021
YCBP 290500Z AUTO 25007KT 9999 // SCT049 17/05 Q1024
YCCY 290500Z AUTO 20007KT //// // ////// 21/M00 Q1019
YCDU 290500Z AUTO 24009KT 9999 // BKN049 OVC061 16/12 Q1023
YCFS 290530Z AUTO 17008KT 9999 // NCD 21/09 Q1018 RF00.0/000.0
TAF YCFS 290509Z 2906/3006 23012KT CAVOK 
     FM290900 22005KT CAVOK 
     FM300000 21010KT 9999 FEW045
       
YCIN 290530Z AUTO 07007KT 9999 // NCD 33/08 Q1011 RF00.0/000.0
TAF YCIN 290037Z 2902/2914 07008KT CAVOK 
     FM290600 VRB05KT CAVOK
       
YCNM 290500Z AUTO 20009KT //// // ////// 15/01 Q1021
YCOM 290500Z AUTO 27011KT 9999 // NCD 08/M02 Q1017
YBCV 290500Z AUTO /////KT //// // ////// ///// Q////
YCCY 290500Z AUTO 20007KT //// // ////// 21/M00 Q1019
YCBA 290500Z AUTO 21010KT 9999 // NCD 14/02 Q1022
YCBP 290500Z AUTO 25007KT 9999 // SCT049 17/05 Q1024
YBCG 290530Z AUTO 29009KT 9999 // NCD 25/08 Q1016 RF00.0/000.0
TAF YBCG 290504Z 2906/3006 29007KT CAVOK 
     FM291000 20005KT 9999 SCT030 
     FM300300 09005KT 9999 SCT030
       
YCOM 290500Z AUTO 27011KT 9999 // NCD 08/M02 Q1017
YCBB 290500Z AUTO 23007KT //// // ////// 12/M01 Q1021
YCNM 290500Z AUTO 20009KT //// // ////// 15/01 Q1021
YCIN 290530Z AUTO 07007KT 9999 // NCD 33/08 Q1011 RF00.0/000.0
TAF YCIN 290037Z 2902/2914 07008KT CAVOK 
     FM290600 VRB05KT CAVOK
       
YPDN 290530Z 04013KT CAVOK 32/13 Q1011 NOSIG
TAF YPDN 290520Z 2906/3012 06010KT CAVOK 
     FM291200 12008KT CAVOK 
     FM300000 12016G26KT CAVOK 
     FM300500 11010KT CAVOK
       
YDBY 290500Z AUTO 11008KT 080V140 9999 // NCD 33/10 Q1012
YSDU 290530Z AUTO 23009KT 9999 // NCD 13/00 Q1021 RF00.0/000.0
TAF YSDU 290501Z 2906/2924 23010KT CAVOK 
     FM291300 15005KT CAVOK 
     PROB30 2918/2923 0500 FG
       
YEML 290500Z AUTO 15004KT 9999 // NCD 27/06 Q1017
YESP 290500Z AUTO 27008KT 9999 // OVC037 OVC054 16/06 Q1026
YFRT 290530Z AUTO 23008KT //// // ////// 18/05 Q1025
TAF YFRT 290037Z 2902/2914 VRB05KT 9999 BKN040
       
YGEL 290530Z 17006KT CAVOK 26/07 Q1019
TAF YGEL 290428Z 2906/2924 17014KT CAVOK 
     FM291200 12008KT CAVOK 
     FM291600 06012KT CAVOK
       
YGLA 290530Z AUTO 05007KT 9999 // NCD 24/17 Q1017 RF00.0/000.0
TAF YGLA 290440Z 2906/2918 08006KT CAVOK 
     FM291400 20005KT 9999 FEW020
       
YPGV 290530Z AUTO 12017KT 9999 // SCT033 29/20 Q1012
TAF YPGV 290029Z 2902/2914 12015G25KT 9999 SCT030 
     FM290900 15010KT 9999 FEW025
       
YGFN 290500Z AUTO 35001KT 9999 // NCD 23/10 Q1017
YGTH 290500Z AUTO 26006KT 210V310 9999 // SCT043 14/03 Q1022
YGTE 290500Z AUTO 11012KT 9999 // SCT052 30/18 Q1013
YBHM 290530Z AUTO 16013KT 9999 // NCD 23/20 Q1017
TAF YBHM 290443Z 2906/2918 15014KT 9999 FEW020 
     FM291500 15016KT 9999 SCT015
       
YMHB 290530Z 32012KT 9999 FEW035 SCT140 11/02 Q1011 RF00.0/000.0
TAF YMHB 290528Z 2906/3006 32012KT 9999 SCT045 
     FM291300 35014KT 9999 -SHRA SCT045 
     FM291700 24010KT 9999 -SHRA SCT020 BKN030 
     FM292000 28008KT 9999 -SHRA SCT025 BKN030 
     FM300000 23018KT 9999 -SHRA SCT035 BKN045 
     FM300200 20020KT 9999 SCT045 INTER 2917/2920 5000 SHRA BKN020
       
YHID 290530Z AUTO 13017KT 9999 // BKN020 BKN025 OVC034 28/23 Q1010
TAF YHID 290535Z 2906/3006 13020G30KT 9999 -SHRA SCT020 SCT040 
     FM291000 13013KT 9999 SCT015 BKN030 
     FM300000 13020G30KT 9999 SCT020 SCT040
       
YHUG 290500Z AUTO 12006KT 090V170 9999 // NCD 27/M00 Q1017
YPKG 290530Z AUTO 08001KT 9999 // NCD 17/05 Q1025
TAF YPKG 290502Z 2906/3006 09005KT CAVOK 
     FM300100 04010KT CAVOK 
     PROB30 2918/2924 0300 FG
       
YKRY 290500Z AUTO 25008KT 9999 // NCD 23/03 Q1019
YKRY 290500Z AUTO 25008KT 9999 // NCD 23/03 Q1019
YPKU 290530Z AUTO 12012KT 9999 // NCD 32/09 Q1013 RF00.0/000.0
TAF YPKU 290037Z 2902/2914 10012KT CAVOK
       
YMLT 290530Z AUTO 31011KT 9999 // NCD 11/02 Q1013 RF00.0/000.0
TAF YMLT 290528Z 2906/3006 33012KT 9999 SCT040 
     FM291200 33012KT 9999 -SHRA SCT015 BKN025 
     FM291400 33015KT 9999 -RA SCT005 BKN010 
     FM292100 14015KT 9999 -SHRA SCT010 BKN020 INTER 2914/2921 3000 SHRA BKN005
       
YPLM 290530Z AUTO 01007KT 9999 // NCD 28/13 Q1016
TAF YPLM 290502Z 2906/3006 04010KT CAVOK 
     FM291000 23010KT CAVOK 
     FM291800 11008KT CAVOK
       
YLEC 290500Z AUTO 24004KT //// // ////// 17/07 Q1023
YLIS 290500Z AUTO 29011KT 9999 // NCD 24/09 Q1016
YLEC 290500Z AUTO 24004KT //// // ////// 17/07 Q1023
YLHI 290530Z 25014KT 9999 VCSH FEW022 SCT026 BKN070 20/14 Q1015
TAF AMD YLHI 290506Z 2906/3006 24015G25KT 9999 -SHRA FEW020 SCT030 
     FM291200 23013KT 9999 SCT030 INTER 2906/2912 5000 SHRA BKN010
       
YLIS 290500Z AUTO 29011KT 9999 // NCD 24/09 Q1016
YLRE 290500Z AUTO 12002KT 9999 // NCD 26/04 Q1018
YLRE 290500Z AUTO 12002KT 9999 // NCD 26/04 Q1018
YBMK 290500Z AUTO 11011KT 9999 // NCD 24/20 Q1017
YMAV 290530Z AUTO 28016KT 9999 // OVC054 13/07 Q1019 RF00.0/000.0
TAF AMD YMAV 290505Z 2906/3006 33010KT 9999 SCT045 BKN060 
     FM291100 33015G25KT 9999 -SHRA SCT040 BKN060 
     FM292000 26014KT 9999 -SHRA SCT015 BKN030 
     FM300200 22018G32KT 9999 -SHRA SCT018 BKN030 INTER 2920/3002 5000 SHRA BKN015 INTER 3002/3006 3000 SHRAGS BKN015
       
YMAY 290500Z AUTO 31008KT 9999 // SCT053 12/05 Q1021
YMDG 290500Z AUTO 26009KT 9999 // NCD 13/01 Q1020
YMEK 290500Z AUTO 02004KT 340V070 9999 // NCD 23/06 Q1022
YMEN 290500Z AUTO 31011KT 9999 // OVC058 13/05 Q1019
YMER 290500Z AUTO 22006KT 9999 // ////// 17/03 Q1017
YMHB 290530Z 32012KT 9999 FEW035 SCT140 11/02 Q1011 RF00.0/000.0
TAF YMHB 290528Z 2906/3006 32012KT 9999 SCT045 
     FM291300 35014KT 9999 -SHRA SCT045 
     FM291700 24010KT 9999 -SHRA SCT020 BKN030 
     FM292000 28008KT 9999 -SHRA SCT025 BKN030 
     FM300000 23018KT 9999 -SHRA SCT035 BKN045 
     FM300200 20020KT 9999 SCT045 INTER 2917/2920 5000 SHRA BKN020
       
YMIA 290500Z AUTO 26006KT 230V290 9999 // SCT039 15/06 Q1022
YMLT 290530Z AUTO 31011KT 9999 // NCD 11/02 Q1013 RF00.0/000.0
TAF YMLT 290528Z 2906/3006 33012KT 9999 SCT040 
     FM291200 33012KT 9999 -SHRA SCT015 BKN025 
     FM291400 33015KT 9999 -RA SCT005 BKN010 
     FM292100 14015KT 9999 -SHRA SCT010 BKN020 INTER 2914/2921 3000 SHRA BKN005
       
YMML 290530Z 31009KT 9999 SCT038 BKN060 13/03 Q1019 NOSIG
TAF AMD YMML 290505Z 2906/3012 30012KT 9999 BKN040 
     FM290800 33012KT 9999 SCT045 
     FM291200 35016G29KT 9999 -SHRA SCT040 BKN060 
     FM292200 27013KT 9999 -SHRA SCT015 BKN030 
     FM300300 21018G32KT 9999 -SHRA SCT015 BKN030 
     FM300800 22010KT 9999 -SHRA FEW020 SCT035 INTER 2921/3004 5000 SHRA BKN015 INTER 3004/3010 3000 SHRAGS BKN015
       
YMOR 290500Z AUTO 23012KT 9999 // NCD 17/05 Q1020
YMTG 290553Z AUTO 35008KT 4600 DZ SCT008 BKN012 BKN020 12/11 Q1018
YMEK 290500Z AUTO 02004KT 340V070 9999 // NCD 23/06 Q1022
YMEN 290500Z AUTO 31011KT 9999 // OVC058 13/05 Q1019
YMML 290530Z 31009KT 9999 SCT038 BKN060 13/03 Q1019 NOSIG
TAF AMD YMML 290505Z 2906/3012 30012KT 9999 BKN040 
     FM290800 33012KT 9999 SCT045 
     FM291200 35016G29KT 9999 -SHRA SCT040 BKN060 
     FM292200 27013KT 9999 -SHRA SCT015 BKN030 
     FM300300 21018G32KT 9999 -SHRA SCT015 BKN030 
     FM300800 22010KT 9999 -SHRA FEW020 SCT035 INTER 2921/3004 5000 SHRA BKN015 INTER 3004/3010 3000 SHRAGS BKN015
       
YMER 290500Z AUTO 22006KT 9999 // ////// 17/03 Q1017
YMIA 290500Z AUTO 26006KT 230V290 9999 // SCT039 15/06 Q1022
YMOR 290500Z AUTO 23012KT 9999 // NCD 17/05 Q1020
YMTG 290553Z AUTO 35008KT 4600 DZ SCT008 BKN012 BKN020 12/11 Q1018
YBMA 290530Z AUTO 16009KT 9999 // NCD 21/01 Q1020
TAF YBMA 290436Z 2906/2918 16010KT CAVOK
       
YMDG 290500Z AUTO 26009KT 9999 // NCD 13/01 Q1020
YNBR 290500Z AUTO 22008KT 9999 // SCT055 18/03 Q1020
YNAR 290500Z AUTO 27007KT //// // ////// 14/03 Q1022
YNWN 290500Z AUTO 11005KT 080V150 9999 // NCD 23/11 Q1020
YNTN 290500Z AUTO 16012KT 9999 // NCD 30/07 Q1015
YSNW 290500Z 30011KT 9999 FEW035 15/02 Q1018 NOSIG
YBOK 290500Z 26013KT CAVOK 22/05 Q1019 NOSIG
YOLD 290500Z AUTO 21007KT 170V240 9999 // OVC039 18/08 Q1023
TAF YOLD 290007Z 2902/2914 25006KT 9999 FEW040
       
YPAD 290530Z 26013KT 4000 -SHRA FEW012 SCT014 BKN018 14/13 Q1021 FM0530 29012KT 9999 -SHRA SCT020 BKN030 INTER 0530/0830 3000 SHRA SCT010 BKN020
TAF AMD YPAD 290526Z 2906/3012 29012KT 9999 -SHRA SCT020 BKN030 
     FM291800 18012KT 9999 -SHRA SCT025 
     FM300000 18012KT 9999 SCT040 
     FM300800 16007KT 9999 FEW040 INTER 2906/2910 3000 SHRA SCT010 BKN020 INTER 2910/2917 5000 SHRA SCT015 BKN025 INTER 2917/2919 20015G25KT 3000 SHRA BKN010
       
YPBO 290500Z AUTO 09009KT 070V130 9999 // NCD 27/07 Q1018
YPCC 290530Z 12015KT 9999 SCT019 SCT180 29/23 Q1011
TAF YPCC 290505Z 2906/3006 12018KT 9999 -SHRA SCT020 INTER 2906/3006 4000 SHRA BKN010
       
YPDN 290530Z 04013KT CAVOK 32/13 Q1011 NOSIG
TAF YPDN 290520Z 2906/3012 06010KT CAVOK 
     FM291200 12008KT CAVOK 
     FM300000 12016G26KT CAVOK 
     FM300500 11010KT CAVOK
       
YPEA 290530Z 07006KT CAVOK 20/08 Q1022
TAF YPEA 290501Z 2906/2924 11008KT 9999 FEW045 
     FM291200 08005KT CAVOK
       
YPGV 290530Z AUTO 12017KT 9999 // SCT033 29/20 Q1012
TAF YPGV 290029Z 2902/2914 12015G25KT 9999 SCT030 
     FM290900 15010KT 9999 FEW025
       
YPJT 290530Z AUTO 09006KT 9999 // NCD 20/07 Q1023 RF00.0/000.0
TAF YPJT 290428Z 2906/2924 10008KT CAVOK 
     FM291800 05010KT CAVOK
       
YPKG 290530Z AUTO 08001KT 9999 // NCD 17/05 Q1025
TAF YPKG 290502Z 2906/3006 09005KT CAVOK 
     FM300100 04010KT CAVOK 
     PROB30 2918/2924 0300 FG
       
YPKU 290530Z AUTO 12012KT 9999 // NCD 32/09 Q1013 RF00.0/000.0
TAF YPKU 290037Z 2902/2914 10012KT CAVOK
       
YPLM 290530Z AUTO 01007KT 9999 // NCD 28/13 Q1016
TAF YPLM 290502Z 2906/3006 04010KT CAVOK 
     FM291000 23010KT CAVOK 
     FM291800 11008KT CAVOK
       
YPPD 290530Z AUTO 11010KT //// // NCD 30/10 Q1015
TAF YPPD 290506Z 2906/3006 16010KT CAVOK 
     FM300100 11014KT CAVOK
       
YPPH 290530Z 07006KT 020V100 CAVOK 20/07 Q1023 NOSIG
TAF YPPH 290505Z 2906/3012 09010KT CAVOK 
     FM291800 06012KT CAVOK 
     FM300100 03014KT CAVOK 
     FM300500 35005KT CAVOK
       
YPTN 290530Z AUTO 08014KT 9999 // NCD 32/10 Q1012
TAF YPTN 290505Z 2906/3006 11014KT CAVOK 
     FM290800 10008KT CAVOK 
     FM300100 12018G30KT CAVOK
       
YPWR 290530Z AUTO 21007KT 9999 // OVC043 18/07 Q1023
TAF YPWR 290439Z 2906/2924 25007KT 9999 BKN040 
     FM291000 25007KT 9999 SCT045 
     FM292100 22006KT CAVOK
       
YPXM 290530Z AUTO 12012KT 9999 // BKN010 BKN015 OVC020 27/24 Q1012
TAF YPXM 290504Z 2906/3006 12012KT 9999 -SHRA BKN010
       
YPBO 290500Z AUTO 09009KT 070V130 9999 // NCD 27/07 Q1018
YPEA 290530Z 07006KT CAVOK 20/08 Q1022
TAF YPEA 290501Z 2906/2924 11008KT 9999 FEW045 
     FM291200 08005KT CAVOK
       
YPPH 290530Z 07006KT 020V100 CAVOK 20/07 Q1023 NOSIG
TAF YPPH 290505Z 2906/3012 09010KT CAVOK 
     FM291800 06012KT CAVOK 
     FM300100 03014KT CAVOK 
     FM300500 35005KT CAVOK
       
YPJT 290530Z AUTO 09006KT 9999 // NCD 20/07 Q1023 RF00.0/000.0
TAF YPJT 290428Z 2906/2924 10008KT CAVOK 
     FM291800 05010KT CAVOK
       
YPPD 290530Z AUTO 11010KT //// // NCD 30/10 Q1015
TAF YPPD 290506Z 2906/3006 16010KT CAVOK 
     FM300100 11014KT CAVOK
       
YBPN 290500Z AUTO 10009KT 9999 // NCD 25/16 Q1016
YSRI 290530Z AUTO 19006KT 9999 // NCD 18/M01 Q1018 RF00.0/000.0 PRESENT WEATHER SENSOR US
TAF YSRI 290504Z 2906/3006 17010KT CAVOK 
     FM290900 VRB05KT CAVOK 
     PROB30 2918/2922 0500 FG
       
YRMD 290500Z AUTO 16008KT //// // ////// 26/02 Q1017
TAF YRMD 281813Z 2820/2908 16007KT CAVOK
       
YBRK 290530Z 32003KT CAVOK 27/16 Q1016
TAF YBRK 290522Z 2906/3006 VRB05KT 9999 FEW040 
     FM291200 18004KT 9999 FEW025 
     FM300000 12007KT 9999 FEW030 
     PROB30 2916/2923 2000 BR
       
YSCB 290530Z 30014KT 9999 FEW035 10/01 Q1019 NOSIG
TAF AMD YSCB 290518Z 2906/3006 29010KT 9999 FEW030 
     BECMG 2913/2915 29005KT 9999 BKN010 
     FM300000 29012KT 9999 SCT025 
     PROB30 2914/2922 3000 BR BKN006
       
YSDU 290530Z AUTO 23009KT 9999 // NCD 13/00 Q1021 RF00.0/000.0
TAF YSDU 290501Z 2906/2924 23010KT CAVOK 
     FM291300 15005KT CAVOK 
     PROB30 2918/2923 0500 FG
       
YSNF 290530Z AUTO 06005KT 9999 // NCD 18/10 Q1021
TAF YSNF 290509Z 2906/3006 05005KT 9999 FEW040 
     FM291200 02005KT 9999 SCT030 
     FM291800 35005KT 9999 -SHRA SCT020 
     FM300000 32008KT 9999 -SHRA SCT015 INTER 3003/3006 4000 SHRA BKN010
       
YSNW 290500Z 30011KT 9999 FEW035 15/02 Q1018 NOSIG
YSRI 290530Z AUTO 19006KT 9999 // NCD 18/M01 Q1018 RF00.0/000.0 PRESENT WEATHER SENSOR US
TAF YSRI 290504Z 2906/3006 17010KT CAVOK 
     FM290900 VRB05KT CAVOK 
     PROB30 2918/2922 0500 FG
       
YSSY 290530Z 23009KT CAVOK 17/03 Q1018 NOSIG
TAF YSSY 290507Z 2906/3012 23008KT CAVOK 
     FM291000 29008KT CAVOK
       
YSTW 290530Z AUTO 27009KT 9999 // NCD 16/02 Q1020 RF00.0/000.0
TAF YSTW 290453Z 2906/2924 28010KT CAVOK 
     FM290800 20005KT CAVOK
       
YSWG 290500Z 23007KT 9999 FEW026 11/03 Q1022
YKRY 290500Z AUTO 25008KT 9999 // NCD 23/03 Q1019
YSSY 290530Z 23009KT CAVOK 17/03 Q1018 NOSIG
TAF YSSY 290507Z 2906/3012 23008KT CAVOK 
     FM291000 29008KT CAVOK
       
YSTW 290530Z AUTO 27009KT 9999 // NCD 16/02 Q1020 RF00.0/000.0
TAF YSTW 290453Z 2906/2924 28010KT CAVOK 
     FM290800 20005KT CAVOK
       
YTRE 290500Z AUTO 21011KT 9999 // NCD 19/03 Q1018
TAF YTRE 290054Z 2902/2914 29010KT CAVOK 
     FM290700 VRB03KT CAVOK
       
YTEF 290500Z AUTO 08010KT 9999 // NCD 28/08 Q1016
YTNK 290500Z AUTO 09017KT 9999 // ////// 26/02 Q1019
TAF YTNK 290031Z 2902/2914 11014KT CAVOK
       
YTEF 290500Z AUTO 08010KT 9999 // NCD 28/08 Q1016
YTNK 290500Z AUTO 09017KT 9999 // ////// 26/02 Q1019
TAF YTNK 290031Z 2902/2914 11014KT CAVOK
       
YTRE 290500Z AUTO 21011KT 9999 // NCD 19/03 Q1018
TAF YTRE 290054Z 2902/2914 29010KT CAVOK 
     FM290700 VRB03KT CAVOK
       
YPTN 290530Z AUTO 08014KT 9999 // NCD 32/10 Q1012
TAF YPTN 290505Z 2906/3006 11014KT CAVOK 
     FM290800 10008KT CAVOK 
     FM300100 12018G30KT CAVOK
       
YBTL 290530Z 06009KT 9999 FEW038 SCT230 BKN330 25/19 Q1016 NOSIG RMK USE TAF FOR ARRIVALS AFTER 0800Z
TAF YBTL 290537Z 2906/3006 07012KT 9999 FEW030 
     FM290900 10006KT 9999 FEW017 
     FM291200 16005KT 9999 SCT016 
     FM300000 11013KT 9999 FEW030 
     FM300200 07015KT 9999 FEW035
       
YSWG 290500Z 23007KT 9999 FEW026 11/03 Q1022
YWGT 290500Z AUTO 24004KT 9999 // SCT051 12/05 Q1021
TAF YWGT 290033Z 2902/2914 28007KT 9999 BKN020 
     FM290500 33005KT 9999 SCT030
       
YBWP 290500Z AUTO 12015KT 9999 // SCT054 31/19 Q1011
YWHA 290500Z AUTO 25005KT 210V270 9999 // BKN038 OVC055 18/10 Q1022
YWLM 290530Z 25008KT CAVOK 18/M01 Q1018 NOSIG
TAF YWLM 290505Z 2906/3006 24012KT CAVOK 
     FM291000 30008KT CAVOK 
     FM300200 29012KT CAVOK
       
YPWR 290530Z AUTO 21007KT 9999 // OVC043 18/07 Q1023
TAF YPWR 290439Z 2906/2924 25007KT 9999 BKN040 
     FM291000 25007KT 9999 SCT045 
     FM292100 22006KT CAVOK